Pj Brix — WDD5130 — position and weather

sailwx.info

Track history (hours):
 
Tides and Currents Weather Stations Pressure Air Temp Water Temp Dewpoint Dewpoint Depression Visibility Wind Speed Wind Dir Waves Ship Positions

Pj Brix

Owner: Foss Maritime Co., Portland, OR. More information available from US FCC via Universal Licensing System and Coast Guard Vessel Documentation Center.

Last reported at 2018-Jun-22 09:30 UTC. Time now 2018-Jun-22 09:31 UTC.
Position N 45°53' W 122°47'.

Length 39 m; draft 3 m.

Type: Towing. MMSI: 2249672.

Date/timePositionNaut miles runAvg speedWind from/ knotsBaromVisibWave heightAir tempDewpointWater temp
2018-Jun-22 09:30N 45°53' W 122°47'4 7.7
2018-Jun-22 09:00N 45°56' W 122°48'5 8.2
2018-Jun-22 08:23N 46°01' W 122°51'3 8.2
2018-Jun-22 08:00N 46°04' W 122°53'4 8.4
2018-Jun-22 07:31N 46°06' W 122°58'5 8.8
2018-Jun-22 06:59N 46°09' W 123°03'4 8.9
2018-Jun-22 06:31N 46°11' W 123°08'7 9.2
2018-Jun-22 05:44N 46°09' W 123°18'2 9.4
2018-Jun-22 05:31N 46°09' W 123°21'4 8.7
2018-Jun-22 05:00N 46°12' W 123°26'5 9.3
2018-Jun-22 04:31N 46°16' W 123°28'5 9.7
2018-Jun-22 04:01N 46°15' W 123°35'4 8.3
2018-Jun-22 03:31N 46°15' W 123°41'3 6.8
2018-Jun-22 03:00N 46°13' W 123°45'610.8
2018-Jun-22 02:29N 46°11' W 123°53'0 0.7
2018-Jun-22 02:01N 46°12' W 123°52'4 8.4
2018-Jun-22 01:31N 46°13' W 123°47'4 9.0
2018-Jun-22 01:01N 46°15' W 123°41'5 9.8
2018-Jun-22 00:30N 46°15' W 123°34'5 9.8
2018-Jun-22 00:01N 46°15' W 123°27'611.1
2018-Jun-21 23:31N 46°10' W 123°24'611.3
2018-Jun-21 23:00N 46°09' W 123°16'612.0
2018-Jun-21 22:30N 46°11' W 123°08'612.0
2018-Jun-21 22:00N 46°08' W 123°01'611.8
2018-Jun-21 21:30N 46°05' W 122°54'611.6
2018-Jun-21 21:00N 45°59' W 122°51'611.1
2018-Jun-21 20:31N 45°54' W 122°48'611.1
2018-Jun-21 20:01N 45°49' W 122°48'611.0
2018-Jun-21 19:30N 45°43' W 122°46'510.2
2018-Jun-21 19:01N 45°38' W 122°47'3 5.9
2018-Jun-21 18:30N 45°35' W 122°46'0 0.0
2018-Jun-21 18:00N 45°35' W 122°46'3 6.2
2018-Jun-21 17:31N 45°38' W 122°47'1 1.1
2018-Jun-21 17:01N 45°39' W 122°46'0 0.1
2018-Jun-21 16:30N 45°39' W 122°46'1 1.8
2018-Jun-21 16:01N 45°39' W 122°46'1 1.9
2018-Jun-21 15:30N 45°39' W 122°46'0 0.0
2018-Jun-21 15:00N 45°39' W 122°46'0 0.0
2018-Jun-21 14:30N 45°39' W 122°46'0 0.0
2018-Jun-21 14:00N 45°39' W 122°46'0 0.0
2018-Jun-21 13:31N 45°39' W 122°46'0 0.0
2018-Jun-21 13:00N 45°39' W 122°46'1 1.7
2018-Jun-21 12:30N 45°38' W 122°47'3 3.6
2018-Jun-21 11:43N 45°35' W 122°46'0 0.0
2018-Jun-21 11:31N 45°35' W 122°46'0 0.0
2018-Jun-21 11:01N 45°35' W 122°46'0 0.0
2018-Jun-21 10:31N 45°35' W 122°46'0 0.0
2018-Jun-21 10:00N 45°35' W 122°46'0 0.0
2018-Jun-21 09:30N 45°35' W 122°46'0 0.0
2018-Jun-21 08:49N 45°35' W 122°46'0 0.0
2018-Jun-21 08:30N 45°35' W 122°46'0 0.0
2018-Jun-21 08:00N 45°35' W 122°46'0 0.0
2018-Jun-21 07:30N 45°35' W 122°46'0 0.0
2018-Jun-21 06:59N 45°35' W 122°46'0 0.0
2018-Jun-21 06:30N 45°35' W 122°46'0 0.0
2018-Jun-21 05:49N 45°35' W 122°46'0 0.0
2018-Jun-21 05:30N 45°35' W 122°46'0 0.0
2018-Jun-21 05:01N 45°35' W 122°46'0 0.0
2018-Jun-21 04:31N 45°35' W 122°46'0 0.0
2018-Jun-21 04:01N 45°35' W 122°46'0 0.0
2018-Jun-21 03:25N 45°35' W 122°46'0 0.0
2018-Jun-21 02:40N 45°35' W 122°46'0 0.0
2018-Jun-21 02:26N 45°35' W 122°46'0 0.0
2018-Jun-21 01:49N 45°35' W 122°46'0 0.0
2018-Jun-21 01:27N 45°35' W 122°46'0 0.0
2018-Jun-21 00:59N 45°35' W 122°46'0 0.1
2018-Jun-21 00:30N 45°35' W 122°46'0 0.0
2018-Jun-20 23:46N 45°35' W 122°46'0 0.0
2018-Jun-20 23:18N 45°35' W 122°46'0 0.0
2018-Jun-20 22:54N 45°35' W 122°46'0 0.0
2018-Jun-20 22:23N 45°35' W 122°46'0 0.0
2018-Jun-20 21:56N 45°35' W 122°46'0 0.0
2018-Jun-20 21:28N 45°35' W 122°46'0 0.0
2018-Jun-20 21:00N 45°35' W 122°46'0 0.0
2018-Jun-20 20:27N 45°35' W 122°46'0 0.0
2018-Jun-20 19:58N 45°35' W 122°46'0 0.0
2018-Jun-20 19:22N 45°35' W 122°46'0 0.0
2018-Jun-20 19:00N 45°35' W 122°46'0 0.0
2018-Jun-20 18:24N 45°35' W 122°46'0 0.0
2018-Jun-20 17:56N 45°35' W 122°46'0 0.0
2018-Jun-20 17:24N 45°35' W 122°46'0 0.0
2018-Jun-20 16:58N 45°35' W 122°46'0 0.0
2018-Jun-20 16:24N 45°35' W 122°46'0 0.0
2018-Jun-20 15:55N 45°35' W 122°46'0 0.0
2018-Jun-20 15:23N 45°35' W 122°46'0 0.0
2018-Jun-20 14:59N 45°35' W 122°46'0 0.0
2018-Jun-20 14:29N 45°35' W 122°46'0 0.0
2018-Jun-20 14:00N 45°35' W 122°46'0 0.0
2018-Jun-20 13:30N 45°35' W 122°46'0 0.0
2018-Jun-20 12:59N 45°35' W 122°46'0 0.0
2018-Jun-20 12:24N 45°35' W 122°46'0 0.0
2018-Jun-20 11:57N 45°35' W 122°46'0 0.0
2018-Jun-20 11:28N 45°35' W 122°46'0 0.0
2018-Jun-20 10:40N 45°35' W 122°46'0 0.0
2018-Jun-20 10:30N 45°35' W 122°46'0 0.0
2018-Jun-20 10:00N 45°35' W 122°46'0 0.1
2018-Jun-20 09:31N 45°35' W 122°46'0 0.0
2018-Jun-20 09:00N 45°35' W 122°46'0 0.0
2018-Jun-20 08:30N 45°35' W 122°46'0 0.0
2018-Jun-20 08:01N 45°35' W 122°46'0 0.0
2018-Jun-20 07:30N 45°35' W 122°46'0 0.0
2018-Jun-20 06:59N 45°35' W 122°46'0 0.0
2018-Jun-20 05:35N 45°35' W 122°46'0 0.0
2018-Jun-20 05:30N 45°35' W 122°46'0 0.0
2018-Jun-20 05:01N 45°35' W 122°46'0 0.0
2018-Jun-20 04:31N 45°35' W 122°46'3 6.3
2018-Jun-20 04:00N 45°38' W 122°47'5 8.0
2018-Jun-20 03:20N 45°44' W 122°46'3 7.8
2018-Jun-20 03:00N 45°46' W 122°46'4 7.4
2018-Jun-20 02:31N 45°50' W 122°48'4 7.1
2018-Jun-20 02:00N 45°53' W 122°48'4 7.3
2018-Jun-20 01:31N 45°57' W 122°49'4 7.5
2018-Jun-20 01:01N 46°00' W 122°51'4 7.0
2018-Jun-20 00:29N 46°04' W 122°53'2 4.9
2018-Jun-20 00:00N 46°05' W 122°56'4 8.0
2018-Jun-19 23:31N 46°02' W 122°53'1 1.1
2018-Jun-19 23:01N 46°02' W 122°53'0 0.1
2018-Jun-19 22:31N 46°02' W 122°53'0 0.0
2018-Jun-19 22:00N 46°02' W 122°53'0 0.3
2018-Jun-19 21:09N 46°02' W 122°52'0 0.0
2018-Jun-19 20:55N 46°02' W 122°52'0 0.0
2018-Jun-19 20:31N 46°02' W 122°52'0 0.2
2018-Jun-19 20:01N 46°02' W 122°52'0 0.0
2018-Jun-19 19:30N 46°02' W 122°52'0 0.0
2018-Jun-19 18:59N 46°02' W 122°52'1 1.4
2018-Jun-19 18:30N 46°02' W 122°53'5 6.5
2018-Jun-19 17:45N 46°06' W 122°57'0 0.0
2018-Jun-19 17:30N 46°06' W 122°57'2 4.9
2018-Jun-19 17:00N 46°08' W 122°60'5 6.2
2018-Jun-19 16:07N 46°11' W 123°06'1 6.6
2018-Jun-19 16:00N 46°11' W 123°07'5 6.5
2018-Jun-19 15:16N 46°10' W 123°14'2 6.9
2018-Jun-19 15:00N 46°09' W 123°16'5 7.1
2018-Jun-19 14:22N 46°09' W 123°23'3 7.3
2018-Jun-19 14:01N 46°11' W 123°25'4 7.3
2018-Jun-19 13:30N 46°14' W 123°26'4 7.1
2018-Jun-19 13:00N 46°16' W 123°30'4 7.9
2018-Jun-19 12:31N 46°15' W 123°36'4 8.2
2018-Jun-19 12:01N 46°15' W 123°42'4 7.4
2018-Jun-19 11:28N 46°13' W 123°46'2 3.5
2018-Jun-19 11:00N 46°12' W 123°48'5 8.8
2018-Jun-19 10:30N 46°11' W 123°55'0 0.6
2018-Jun-19 10:01N 46°11' W 123°55'0 0.0
2018-Jun-19 09:30N 46°11' W 123°55'0 0.0
2018-Jun-19 09:01N 46°11' W 123°55'0 0.0
2018-Jun-19 08:30N 46°11' W 123°55'4 8.8
2018-Jun-19 08:00N 46°12' W 123°49'510.8
2018-Jun-19 07:30N 46°15' W 123°42'611.1
2018-Jun-19 07:00N 46°15' W 123°34'510.3
2018-Jun-19 06:31N 46°15' W 123°27'510.8
2018-Jun-19 06:01N 46°10' W 123°25'510.4
2018-Jun-19 05:31N 46°09' W 123°18'510.5
2018-Jun-19 05:01N 46°11' W 123°11'5 9.1
2018-Jun-19 04:30N 46°10' W 123°04'4 8.7
2018-Jun-19 04:01N 46°07' W 122°59'4 7.9
2018-Jun-19 03:30N 46°05' W 122°55'4 8.4
2018-Jun-19 03:01N 46°01' W 122°52'2 3.1
2018-Jun-19 02:31N 45°60' W 122°51'0 0.2
2018-Jun-19 02:01N 45°60' W 122°51'1 2.6
2018-Jun-19 01:31N 46°01' W 122°52'0 0.8
2018-Jun-19 01:00N 46°01' W 122°52'2 4.9
2018-Jun-19 00:30N 46°04' W 122°53'3 5.0
2018-Jun-19 00:01N 46°05' W 122°56'0 0.0
2018-Jun-18 23:30N 46°05' W 122°56'0 0.0
2018-Jun-18 23:00N 46°05' W 122°56'0 0.0
2018-Jun-18 22:30N 46°05' W 122°56'0 0.0
2018-Jun-18 22:01N 46°05' W 122°56'0 0.0
2018-Jun-18 21:31N 46°05' W 122°56'0 0.0
2018-Jun-18 21:00N 46°05' W 122°56'0 0.0
2018-Jun-18 20:30N 46°05' W 122°56'0 0.0
2018-Jun-18 20:00N 46°05' W 122°56'0 0.0
2018-Jun-18 19:30N 46°05' W 122°56'0 0.0
2018-Jun-18 19:00N 46°05' W 122°56'0 0.0
2018-Jun-18 18:30N 46°05' W 122°56'0 0.0
2018-Jun-18 17:59N 46°05' W 122°56'0 0.0
2018-Jun-18 17:21N 46°05' W 122°56'0 0.1
2018-Jun-18 17:01N 46°05' W 122°56'2 4.3
2018-Jun-18 16:31N 46°07' W 122°58'0 0.1
2018-Jun-18 16:00N 46°07' W 122°58'1 1.3
2018-Jun-18 15:31N 46°06' W 122°58'2 3.3
2018-Jun-18 15:00N 46°05' W 122°56'0 0.0
2018-Jun-18 14:31N 46°05' W 122°56'0 0.0
2018-Jun-18 14:00N 46°05' W 122°56'0 0.0
2018-Jun-18 13:31N 46°05' W 122°56'0 0.0
2018-Jun-18 13:00N 46°05' W 122°56'0 0.0
2018-Jun-18 12:30N 46°05' W 122°56'0 0.0
2018-Jun-18 12:01N 46°05' W 122°56'0 0.0
2018-Jun-18 11:30N 46°05' W 122°56'0 0.0
2018-Jun-18 11:01N 46°05' W 122°56'0 0.0
2018-Jun-18 10:31N 46°05' W 122°56'0 0.0
2018-Jun-18 10:01N 46°05' W 122°56'0 0.0
2018-Jun-18 09:30N 46°05' W 122°56'0 0.0
2018-Jun-18 09:01N 46°05' W 122°56'0 0.0
2018-Jun-18 08:30N 46°05' W 122°56'0 0.0
2018-Jun-18 08:01N 46°05' W 122°56'0 0.0
2018-Jun-18 07:30N 46°05' W 122°56'0 0.0
2018-Jun-18 06:59N 46°05' W 122°56'0 0.0
2018-Jun-18 06:30N 46°05' W 122°56'0 0.0
2018-Jun-18 06:00N 46°05' W 122°56'0 0.0
2018-Jun-18 05:30N 46°05' W 122°56'0 0.0
2018-Jun-18 05:01N 46°05' W 122°56'0 0.0
2018-Jun-18 04:30N 46°05' W 122°56'1 2.2
2018-Jun-18 04:01N 46°06' W 122°57'1 2.2
2018-Jun-18 03:30N 46°07' W 122°58'0 0.0
2018-Jun-18 03:00N 46°07' W 122°58'0 0.4
2018-Jun-18 02:06N 46°07' W 122°58'0 0.0
2018-Jun-18 02:01N 46°07' W 122°58'0 0.0
2018-Jun-18 01:30N 46°07' W 122°58'2 3.1
2018-Jun-18 01:01N 46°06' W 122°57'5 9.9
2018-Jun-18 00:31N 46°02' W 122°53'3 6.3
2018-Jun-18 00:00N 45°59' W 122°50'0 0.2
2018-Jun-17 23:31N 45°59' W 122°50'0 0.1
2018-Jun-17 22:47N 45°59' W 122°50'0 0.0
2018-Jun-17 22:31N 45°59' W 122°50'0 0.0
2018-Jun-17 22:00N 45°59' W 122°50'1 1.5
2018-Jun-17 21:18N 45°58' W 122°50'411.4
2018-Jun-17 20:57N 45°54' W 122°48'610.5
2018-Jun-17 20:23N 45°48' W 122°47'410.8
2018-Jun-17 20:00N 45°44' W 122°46'510.7
2018-Jun-17 19:31N 45°39' W 122°46'4 7.7
2018-Jun-17 19:00N 45°35' W 122°46'0 0.0
2018-Jun-17 18:31N 45°35' W 122°46'0 0.0
2018-Jun-17 18:00N 45°35' W 122°46'0 0.0
2018-Jun-17 17:30N 45°35' W 122°46'0 0.0
2018-Jun-17 17:00N 45°35' W 122°46'3 5.6
2018-Jun-17 16:31N 45°38' W 122°47'2 2.7
2018-Jun-17 15:56N 45°39' W 122°46'1 1.5
2018-Jun-17 15:31N 45°39' W 122°46'0 0.0
2018-Jun-17 15:00N 45°39' W 122°46'0 0.0
2018-Jun-17 14:30N 45°39' W 122°46'1 2.0
2018-Jun-17 14:00N 45°39' W 122°45'0 0.0
2018-Jun-17 13:31N 45°39' W 122°45'0 0.0
2018-Jun-17 13:00N 45°39' W 122°45'0 0.0
2018-Jun-17 12:30N 45°39' W 122°45'0 0.0
2018-Jun-17 12:01N 45°39' W 122°45'0 0.0
2018-Jun-17 11:30N 45°39' W 122°45'0 0.0
2018-Jun-17 11:00N 45°39' W 122°45'0 0.0
2018-Jun-17 10:30N 45°39' W 122°45'2 2.9
2018-Jun-17 09:44N 45°38' W 122°47'0 0.0
2018-Jun-17 09:30N 45°38' W 122°47'0 0.0
2018-Jun-17 09:00N 45°38' W 122°47'0 1.0
2018-Jun-17 08:30N 45°38' W 122°47'2 3.5
2018-Jun-17 08:00N 45°39' W 122°45'0 0.5
2018-Jun-17 07:30N 45°39' W 122°45'0 0.9
2018-Jun-17 07:00N 45°39' W 122°46'1 2.3
2018-Jun-17 06:30N 45°40' W 122°46'3 5.8
2018-Jun-17 06:00N 45°43' W 122°46'3 6.3
2018-Jun-17 05:31N 45°46' W 122°46'3 6.2
2018-Jun-17 05:00N 45°49' W 122°48'3 6.1
2018-Jun-17 04:31N 45°52' W 122°47'3 6.3
2018-Jun-17 04:00N 45°55' W 122°48'3 6.3
2018-Jun-17 03:30N 45°58' W 122°50'3 6.8
2018-Jun-17 03:01N 46°01' W 122°52'3 6.9
2018-Jun-17 02:30N 46°05' W 122°54'4 7.1
2018-Jun-17 02:00N 46°06' W 122°58'4 7.1
2018-Jun-17 01:29N 46°09' W 123°02'4 7.3
2018-Jun-17 01:01N 46°11' W 123°06'4 7.0
2018-Jun-17 00:30N 46°11' W 123°12'4 7.5
2018-Jun-17 00:01N 46°09' W 123°16'4 7.5
2018-Jun-16 23:30N 46°09' W 123°22'4 7.4
2018-Jun-16 23:00N 46°11' W 123°26'4 7.4
2018-Jun-16 22:31N 46°15' W 123°26'3 6.9
2018-Jun-16 22:00N 46°16' W 123°31'4 8.1
2018-Jun-16 21:30N 46°15' W 123°37'4 8.0
2018-Jun-16 21:00N 46°14' W 123°42'4 8.6
2018-Jun-16 20:30N 46°12' W 123°48'4 8.7
2018-Jun-16 20:01N 46°11' W 123°54'1 2.5
2018-Jun-16 19:28N 46°12' W 123°56'1 1.2
2018-Jun-16 19:00N 46°11' W 123°55'0 0.0
2018-Jun-16 18:31N 46°11' W 123°55'0 0.0
2018-Jun-16 18:01N 46°11' W 123°55'0 0.0
2018-Jun-16 17:31N 46°11' W 123°55'5 9.6
2018-Jun-16 17:00N 46°12' W 123°48'611.9
2018-Jun-16 16:31N 46°15' W 123°41'611.8
2018-Jun-16 16:00N 46°16' W 123°32'5 9.8
2018-Jun-16 15:30N 46°14' W 123°26'510.6
2018-Jun-16 15:00N 46°09' W 123°23'611.0
2018-Jun-16 14:30N 46°09' W 123°15'510.7
2018-Jun-16 14:01N 46°11' W 123°08'510.4
2018-Jun-16 13:30N 46°08' W 123°02'5 9.6
2018-Jun-16 13:00N 46°06' W 122°56'0 0.4
2018-Jun-16 12:30N 46°05' W 122°56'0 0.0
2018-Jun-16 12:00N 46°05' W 122°56'0 0.0
2018-Jun-16 11:30N 46°05' W 122°56'0 0.0
2018-Jun-16 11:01N 46°05' W 122°56'0 0.0
2018-Jun-16 10:31N 46°05' W 122°56'0 0.0
2018-Jun-16 10:01N 46°05' W 122°56'0 0.0
2018-Jun-16 09:31N 46°05' W 122°56'0 0.0
2018-Jun-16 09:01N 46°05' W 122°56'0 0.0
2018-Jun-16 08:30N 46°05' W 122°56'0 0.0
2018-Jun-16 08:00N 46°05' W 122°56'0 0.0
2018-Jun-16 07:31N 46°05' W 122°56'0 0.0
2018-Jun-16 06:59N 46°05' W 122°56'0 0.0
2018-Jun-16 06:30N 46°05' W 122°56'0 0.0
2018-Jun-16 06:00N 46°05' W 122°56'0 0.0
2018-Jun-16 05:30N 46°05' W 122°56'0 0.0
2018-Jun-16 05:00N 46°05' W 122°56'2 3.4
2018-Jun-16 04:28N 46°04' W 122°54'611.1
2018-Jun-16 03:54N 45°58' W 122°50'410.6
2018-Jun-16 03:30N 45°54' W 122°48'510.5
2018-Jun-16 03:01N 45°49' W 122°48'510.4
2018-Jun-16 02:30N 45°44' W 122°46'6 9.8
2018-Jun-16 01:53N 45°38' W 122°47'3 8.0
2018-Jun-16 01:31N 45°35' W 122°46'0 0.1
2018-Jun-16 01:00N 45°35' W 122°46'0 0.0
2018-Jun-16 00:30N 45°35' W 122°46'0 0.0
2018-Jun-16 00:00N 45°35' W 122°46'0 0.0
2018-Jun-15 23:31N 45°35' W 122°46'3 6.5
2018-Jun-15 23:01N 45°38' W 122°47'4 8.1
2018-Jun-15 22:31N 45°42' W 122°46'4 7.9
2018-Jun-15 22:00N 45°46' W 122°46'4 7.6
2018-Jun-15 21:31N 45°50' W 122°47'4 7.3
2018-Jun-15 21:00N 45°54' W 122°48'4 7.4
2018-Jun-15 20:30N 45°57' W 122°49'2 3.4
2018-Jun-15 20:00N 45°59' W 122°50'0 0.1
2018-Jun-15 19:31N 45°59' W 122°50'0 0.1
2018-Jun-15 19:00N 45°59' W 122°50'0 0.4
2018-Jun-15 18:29N 45°59' W 122°50'0 0.0
2018-Jun-15 18:00N 45°59' W 122°50'0 0.0
2018-Jun-15 17:31N 45°59' W 122°50'0 0.0
2018-Jun-15 17:01N 45°59' W 122°50'0 0.0
2018-Jun-15 16:30N 45°59' W 122°50'0 0.0
2018-Jun-15 15:51N 45°59' W 122°50'0 0.0
2018-Jun-15 15:30N 45°59' W 122°50'0 0.0
2018-Jun-15 15:01N 45°59' W 122°50'0 0.0
2018-Jun-15 14:31N 45°59' W 122°50'0 0.5
2018-Jun-15 14:00N 45°59' W 122°50'0 0.5
2018-Jun-15 13:31N 45°59' W 122°50'0 0.1
2018-Jun-15 13:00N 45°59' W 122°50'0 0.0
2018-Jun-15 12:31N 45°59' W 122°50'2 3.4
2018-Jun-15 11:49N 45°57' W 122°49'3 9.5
2018-Jun-15 11:31N 45°54' W 122°48'5 9.6
2018-Jun-15 11:01N 45°49' W 122°48'510.1
2018-Jun-15 10:31N 45°44' W 122°46'6 6.7
2018-Jun-15 09:37N 45°38' W 122°44'0 0.0
2018-Jun-15 09:30N 45°38' W 122°44'0 0.0
2018-Jun-15 09:00N 45°38' W 122°44'0 0.0
2018-Jun-15 08:30N 45°38' W 122°44'1 2.7
2018-Jun-15 08:00N 45°39' W 122°46'1 0.8
2018-Jun-15 07:19N 45°39' W 122°46'0 0.5
2018-Jun-15 06:59N 45°39' W 122°46'0 1.0
2018-Jun-15 06:30N 45°39' W 122°46'0 0.0
2018-Jun-15 06:00N 45°39' W 122°46'0 0.0
2018-Jun-15 05:29N 45°39' W 122°46'1 2.2
2018-Jun-15 05:00N 45°39' W 122°45'0 0.0
2018-Jun-15 04:30N 45°39' W 122°45'0 0.0
2018-Jun-15 04:01N 45°39' W 122°45'0 0.0
2018-Jun-15 03:08N 45°39' W 122°45'1 6.5
2018-Jun-15 03:00N 45°40' W 122°46'4 8.2
2018-Jun-15 02:30N 45°44' W 122°46'4 8.4
2018-Jun-15 02:01N 45°48' W 122°47'5 8.2
2018-Jun-15 01:21N 45°54' W 122°48'3 8.7
2018-Jun-15 01:00N 45°56' W 122°49'4 8.8
2018-Jun-15 00:30N 46°00' W 122°51'1 2.9
2018-Jun-15 00:01N 46°02' W 122°53'0 0.4
2018-Jun-14 23:30N 46°02' W 122°52'0 0.0
2018-Jun-14 23:00N 46°02' W 122°52'0 0.4
2018-Jun-14 22:31N 46°02' W 122°53'0 0.4
2018-Jun-14 22:00N 46°02' W 122°52'0 0.2
2018-Jun-14 21:30N 46°02' W 122°52'0 0.0
2018-Jun-14 21:00N 46°02' W 122°52'0 0.0
2018-Jun-14 20:31N 46°02' W 122°52'0 0.0
2018-Jun-14 20:00N 46°02' W 122°52'0 0.0
2018-Jun-14 19:30N 46°02' W 122°52'0 0.6
2018-Jun-14 19:01N 46°02' W 122°53'0 0.1
2018-Jun-14 18:30N 46°02' W 122°53'0 0.0
2018-Jun-14 18:01N 46°02' W 122°53'0 0.0
2018-Jun-14 17:30N 46°02' W 122°53'0 0.0
2018-Jun-14 17:00N 46°02' W 122°53'0 0.0
2018-Jun-14 16:31N 46°02' W 122°53'0 0.0
2018-Jun-14 16:00N 46°02' W 122°53'0 0.0
2018-Jun-14 15:30N 46°02' W 122°53'0 0.0
2018-Jun-14 15:00N 46°02' W 122°53'0 0.0
2018-Jun-14 14:23N 46°02' W 122°53'0 0.0
2018-Jun-14 14:00N 46°02' W 122°53'0 0.0
2018-Jun-14 13:31N 46°02' W 122°53'0 0.0
2018-Jun-14 13:00N 46°02' W 122°53'0 0.1
2018-Jun-14 12:30N 46°02' W 122°53'0 0.1
2018-Jun-14 12:00N 46°02' W 122°53'0 0.0
2018-Jun-14 11:29N 46°02' W 122°53'0 0.0
2018-Jun-14 11:00N 46°02' W 122°53'0 0.1
2018-Jun-14 10:30N 46°02' W 122°53'0 0.0
2018-Jun-14 10:00N 46°02' W 122°53'0 0.1
2018-Jun-14 09:31N 46°02' W 122°53'0 0.0
2018-Jun-14 09:01N 46°02' W 122°53'0 0.0
2018-Jun-14 08:31N 46°02' W 122°53'0 0.0
2018-Jun-14 08:01N 46°02' W 122°53'0 0.0
2018-Jun-14 07:30N 46°02' W 122°53'1 2.1
2018-Jun-14 06:59N 46°03' W 122°53'2 4.4
2018-Jun-14 06:31N 46°05' W 122°54'2 4.0
2018-Jun-14 06:00N 46°06' W 122°56'0 0.0
2018-Jun-14 05:23N 46°06' W 122°56'1 1.5
2018-Jun-14 05:00N 46°05' W 122°56'0 0.2
2018-Jun-14 04:30N 46°05' W 122°56'0 0.0
2018-Jun-14 04:00N 46°05' W 122°56'0 0.0
2018-Jun-14 03:19N 46°05' W 122°56'0 0.0
2018-Jun-14 03:00N 46°05' W 122°56'0 0.0
2018-Jun-14 02:31N 46°05' W 122°56'0 0.0
2018-Jun-14 02:01N 46°05' W 122°56'4 7.9
2018-Jun-14 01:31N 46°02' W 122°53'611.4
2018-Jun-14 01:01N 45°57' W 122°49'611.2
2018-Jun-14 00:30N 45°52' W 122°47'510.8
2018-Jun-14 00:00N 45°46' W 122°46'511.0
2018-Jun-13 23:31N 45°41' W 122°46'2 4.9
2018-Jun-13 23:00N 45°38' W 122°47'0 0.2
2018-Jun-13 22:29N 45°38' W 122°47'1 2.5
2018-Jun-13 21:59N 45°39' W 122°46'1 1.3
2018-Jun-13 21:30N 45°39' W 122°46'3 6.3
2018-Jun-13 21:01N 45°36' W 122°47'1 0.9
2018-Jun-13 20:27N 45°35' W 122°46'0 0.0
2018-Jun-13 19:51N 45°35' W 122°46'0 0.0
2018-Jun-13 19:31N 45°35' W 122°46'0 0.0
2018-Jun-13 19:00N 45°35' W 122°46'3 6.6
2018-Jun-13 18:31N 45°39' W 122°47'4 8.4
2018-Jun-13 18:00N 45°43' W 122°46'4 8.2
2018-Jun-13 17:30N 45°47' W 122°46'5 7.9
2018-Jun-13 16:51N 45°52' W 122°47'3 8.0
2018-Jun-13 16:31N 45°55' W 122°49'4 7.6
2018-Jun-13 16:01N 45°58' W 122°50'4 7.9
2018-Jun-13 15:31N 46°02' W 122°52'4 7.2
2018-Jun-13 15:01N 46°05' W 122°55'1 1.7
2018-Jun-13 14:29N 46°05' W 122°56'0 0.0
2018-Jun-13 13:56N 46°05' W 122°56'0 0.0
2018-Jun-13 13:29N 46°05' W 122°56'0 0.0
2018-Jun-13 12:59N 46°05' W 122°56'0 0.0
2018-Jun-13 12:29N 46°05' W 122°56'0 0.0
2018-Jun-13 11:53N 46°05' W 122°56'0 0.0
2018-Jun-13 11:29N 46°05' W 122°56'0 0.0
2018-Jun-13 10:53N 46°05' W 122°56'0 0.0
2018-Jun-13 10:29N 46°05' W 122°56'0 0.0
2018-Jun-13 09:50N 46°05' W 122°56'0 0.0
2018-Jun-13 09:29N 46°05' W 122°56'0 0.0
2018-Jun-13 08:50N 46°05' W 122°56'0 0.0
2018-Jun-13 08:29N 46°05' W 122°56'0 0.0
2018-Jun-13 07:59N 46°05' W 122°56'0 0.0
2018-Jun-13 07:29N 46°05' W 122°56'0 0.0
2018-Jun-13 06:59N 46°05' W 122°56'0 0.0
2018-Jun-13 06:14N 46°05' W 122°56'0 0.0
2018-Jun-13 05:53N 46°05' W 122°56'0 0.0
2018-Jun-13 05:20N 46°05' W 122°56'0 0.0
2018-Jun-13 04:59N 46°05' W 122°56'0 0.0
2018-Jun-13 04:29N 46°05' W 122°56'0 0.0
2018-Jun-13 03:47N 46°05' W 122°56'0 0.0
2018-Jun-13 03:23N 46°05' W 122°56'0 0.0
2018-Jun-13 02:56N 46°05' W 122°56'0 0.0
2018-Jun-13 02:11N 46°05' W 122°56'0 0.0
2018-Jun-13 01:59N 46°05' W 122°56'0 0.0
2018-Jun-13 01:26N 46°05' W 122°56'0 0.0
2018-Jun-13 00:59N 46°05' W 122°56'0 0.0
2018-Jun-13 00:29N 46°05' W 122°56'0 0.0
2018-Jun-12 23:59N 46°05' W 122°56'0 0.0
2018-Jun-12 23:28N 46°05' W 122°56'1 2.3
2018-Jun-12 22:59N 46°06' W 122°57'0 0.2
2018-Jun-12 22:30N 46°06' W 122°57'0 0.3
2018-Jun-12 22:00N 46°06' W 122°57'0 0.4
2018-Jun-12 21:26N 46°06' W 122°57'0 0.0
2018-Jun-12 21:00N 46°06' W 122°57'0 0.0
2018-Jun-12 20:31N 46°06' W 122°57'0 0.5
2018-Jun-12 20:00N 46°06' W 122°57'3 6.6
2018-Jun-12 19:30N 46°04' W 122°53'5 9.2
2018-Jun-12 19:00N 45°60' W 122°51'4 7.1
2018-Jun-12 18:30N 46°03' W 122°53'3 5.7
2018-Jun-12 18:00N 46°05' W 122°55'0 0.3
2018-Jun-12 17:01N 46°05' W 122°56'0 0.1
2018-Jun-12 16:43N 46°05' W 122°56'0 0.0
2018-Jun-12 16:28N 46°05' W 122°56'0 0.0
2018-Jun-12 15:55N 46°05' W 122°56'0 0.0
2018-Jun-12 15:28N 46°05' W 122°56'1 1.1
2018-Jun-12 15:00N 46°05' W 122°55'611.8
2018-Jun-12 14:30N 46°00' W 122°51'611.6
2018-Jun-12 14:01N 45°55' W 122°48'611.6
2018-Jun-12 13:30N 45°49' W 122°48'2 4.8
2018-Jun-12 13:00N 45°51' W 122°47'4 7.4
2018-Jun-12 12:30N 45°55' W 122°49'4 7.4
2018-Jun-12 12:00N 45°58' W 122°50'4 5.1
2018-Jun-12 11:17N 46°02' W 122°52'0 0.0
2018-Jun-12 11:00N 46°02' W 122°52'0 0.6
2018-Jun-12 10:31N 46°01' W 122°52'0 0.6
2018-Jun-12 10:00N 46°02' W 122°52'  
Track history (hours):
 
Tides and Currents Weather Stations Pressure Air Temp Water Temp Dewpoint Dewpoint Depression Visibility Wind Speed Wind Dir Waves Ship Positions

Pj Brix

Owner: Foss Maritime Co., Portland, OR. More information available from US FCC via Universal Licensing System and Coast Guard Vessel Documentation Center.

Last reported at 2018-Jun-22 09:30 UTC. Time now 2018-Jun-22 09:31 UTC.
Position N 45°53' W 122°47'.

Length 39 m; draft 3 m.

Type: Towing. MMSI: 2249672.

Date/timePositionNaut miles runAvg speedWind from/ knotsBaromVisibWave heightAir tempDewpointWater temp
2018-Jun-22 09:30N 45°53' W 122°47'4 7.7
2018-Jun-22 09:00N 45°56' W 122°48'5 8.2
2018-Jun-22 08:23N 46°01' W 122°51'3 8.2
2018-Jun-22 08:00N 46°04' W 122°53'4 8.4
2018-Jun-22 07:31N 46°06' W 122°58'5 8.8
2018-Jun-22 06:59N 46°09' W 123°03'4 8.9
2018-Jun-22 06:31N 46°11' W 123°08'7 9.2
2018-Jun-22 05:44N 46°09' W 123°18'2 9.4
2018-Jun-22 05:31N 46°09' W 123°21'4 8.7
2018-Jun-22 05:00N 46°12' W 123°26'5 9.3
2018-Jun-22 04:31N 46°16' W 123°28'5 9.7
2018-Jun-22 04:01N 46°15' W 123°35'4 8.3
2018-Jun-22 03:31N 46°15' W 123°41'3 6.8
2018-Jun-22 03:00N 46°13' W 123°45'610.8
2018-Jun-22 02:29N 46°11' W 123°53'0 0.7
2018-Jun-22 02:01N 46°12' W 123°52'4 8.4
2018-Jun-22 01:31N 46°13' W 123°47'4 9.0
2018-Jun-22 01:01N 46°15' W 123°41'5 9.8
2018-Jun-22 00:30N 46°15' W 123°34'5 9.8
2018-Jun-22 00:01N 46°15' W 123°27'611.1
2018-Jun-21 23:31N 46°10' W 123°24'611.3
2018-Jun-21 23:00N 46°09' W 123°16'612.0
2018-Jun-21 22:30N 46°11' W 123°08'612.0
2018-Jun-21 22:00N 46°08' W 123°01'611.8
2018-Jun-21 21:30N 46°05' W 122°54'611.6
2018-Jun-21 21:00N 45°59' W 122°51'611.1
2018-Jun-21 20:31N 45°54' W 122°48'611.1
2018-Jun-21 20:01N 45°49' W 122°48'611.0
2018-Jun-21 19:30N 45°43' W 122°46'510.2
2018-Jun-21 19:01N 45°38' W 122°47'3 5.9
2018-Jun-21 18:30N 45°35' W 122°46'0 0.0
2018-Jun-21 18:00N 45°35' W 122°46'3 6.2
2018-Jun-21 17:31N 45°38' W 122°47'1 1.1
2018-Jun-21 17:01N 45°39' W 122°46'0 0.1
2018-Jun-21 16:30N 45°39' W 122°46'1 1.8
2018-Jun-21 16:01N 45°39' W 122°46'1 1.9
2018-Jun-21 15:30N 45°39' W 122°46'0 0.0
2018-Jun-21 15:00N 45°39' W 122°46'0 0.0
2018-Jun-21 14:30N 45°39' W 122°46'0 0.0
2018-Jun-21 14:00N 45°39' W 122°46'0 0.0
2018-Jun-21 13:31N 45°39' W 122°46'0 0.0
2018-Jun-21 13:00N 45°39' W 122°46'1 1.7
2018-Jun-21 12:30N 45°38' W 122°47'3 3.6
2018-Jun-21 11:43N 45°35' W 122°46'0 0.0
2018-Jun-21 11:31N 45°35' W 122°46'0 0.0
2018-Jun-21 11:01N 45°35' W 122°46'0 0.0
2018-Jun-21 10:31N 45°35' W 122°46'0 0.0
2018-Jun-21 10:00N 45°35' W 122°46'0 0.0
2018-Jun-21 09:30N 45°35' W 122°46'0 0.0
2018-Jun-21 08:49N 45°35' W 122°46'0 0.0
2018-Jun-21 08:30N 45°35' W 122°46'0 0.0
2018-Jun-21 08:00N 45°35' W 122°46'0 0.0
2018-Jun-21 07:30N 45°35' W 122°46'0 0.0
2018-Jun-21 06:59N 45°35' W 122°46'0 0.0
2018-Jun-21 06:30N 45°35' W 122°46'0 0.0
2018-Jun-21 05:49N 45°35' W 122°46'0 0.0
2018-Jun-21 05:30N 45°35' W 122°46'0 0.0
2018-Jun-21 05:01N 45°35' W 122°46'0 0.0
2018-Jun-21 04:31N 45°35' W 122°46'0 0.0
2018-Jun-21 04:01N 45°35' W 122°46'0 0.0
2018-Jun-21 03:25N 45°35' W 122°46'0 0.0
2018-Jun-21 02:40N 45°35' W 122°46'0 0.0
2018-Jun-21 02:26N 45°35' W 122°46'0 0.0
2018-Jun-21 01:49N 45°35' W 122°46'0 0.0
2018-Jun-21 01:27N 45°35' W 122°46'0 0.0
2018-Jun-21 00:59N 45°35' W 122°46'0 0.1
2018-Jun-21 00:30N 45°35' W 122°46'0 0.0
2018-Jun-20 23:46N 45°35' W 122°46'0 0.0
2018-Jun-20 23:18N 45°35' W 122°46'0 0.0
2018-Jun-20 22:54N 45°35' W 122°46'0 0.0
2018-Jun-20 22:23N 45°35' W 122°46'0 0.0
2018-Jun-20 21:56N 45°35' W 122°46'0 0.0
2018-Jun-20 21:28N 45°35' W 122°46'0 0.0
2018-Jun-20 21:00N 45°35' W 122°46'0 0.0
2018-Jun-20 20:27N 45°35' W 122°46'0 0.0
2018-Jun-20 19:58N 45°35' W 122°46'0 0.0
2018-Jun-20 19:22N 45°35' W 122°46'0 0.0
2018-Jun-20 19:00N 45°35' W 122°46'0 0.0
2018-Jun-20 18:24N 45°35' W 122°46'0 0.0
2018-Jun-20 17:56N 45°35' W 122°46'0 0.0
2018-Jun-20 17:24N 45°35' W 122°46'0 0.0
2018-Jun-20 16:58N 45°35' W 122°46'0 0.0
2018-Jun-20 16:24N 45°35' W 122°46'0 0.0
2018-Jun-20 15:55N 45°35' W 122°46'0 0.0
2018-Jun-20 15:23N 45°35' W 122°46'0 0.0
2018-Jun-20 14:59N 45°35' W 122°46'0 0.0
2018-Jun-20 14:29N 45°35' W 122°46'0 0.0
2018-Jun-20 14:00N 45°35' W 122°46'0 0.0
2018-Jun-20 13:30N 45°35' W 122°46'0 0.0
2018-Jun-20 12:59N 45°35' W 122°46'0 0.0
2018-Jun-20 12:24N 45°35' W 122°46'0 0.0
2018-Jun-20 11:57N 45°35' W 122°46'0 0.0
2018-Jun-20 11:28N 45°35' W 122°46'0 0.0
2018-Jun-20 10:40N 45°35' W 122°46'0 0.0
2018-Jun-20 10:30N 45°35' W 122°46'0 0.0
2018-Jun-20 10:00N 45°35' W 122°46'0 0.1
2018-Jun-20 09:31N 45°35' W 122°46'0 0.0
2018-Jun-20 09:00N 45°35' W 122°46'0 0.0
2018-Jun-20 08:30N 45°35' W 122°46'0 0.0
2018-Jun-20 08:01N 45°35' W 122°46'0 0.0
2018-Jun-20 07:30N 45°35' W 122°46'0 0.0
2018-Jun-20 06:59N 45°35' W 122°46'0 0.0
2018-Jun-20 05:35N 45°35' W 122°46'0 0.0
2018-Jun-20 05:30N 45°35' W 122°46'0 0.0
2018-Jun-20 05:01N 45°35' W 122°46'0 0.0
2018-Jun-20 04:31N 45°35' W 122°46'3 6.3
2018-Jun-20 04:00N 45°38' W 122°47'5 8.0
2018-Jun-20 03:20N 45°44' W 122°46'3 7.8
2018-Jun-20 03:00N 45°46' W 122°46'4 7.4
2018-Jun-20 02:31N 45°50' W 122°48'4 7.1
2018-Jun-20 02:00N 45°53' W 122°48'4 7.3
2018-Jun-20 01:31N 45°57' W 122°49'4 7.5
2018-Jun-20 01:01N 46°00' W 122°51'4 7.0
2018-Jun-20 00:29N 46°04' W 122°53'2 4.9
2018-Jun-20 00:00N 46°05' W 122°56'4 8.0
2018-Jun-19 23:31N 46°02' W 122°53'1 1.1
2018-Jun-19 23:01N 46°02' W 122°53'0 0.1
2018-Jun-19 22:31N 46°02' W 122°53'0 0.0
2018-Jun-19 22:00N 46°02' W 122°53'0 0.3
2018-Jun-19 21:09N 46°02' W 122°52'0 0.0
2018-Jun-19 20:55N 46°02' W 122°52'0 0.0
2018-Jun-19 20:31N 46°02' W 122°52'0 0.2
2018-Jun-19 20:01N 46°02' W 122°52'0 0.0
2018-Jun-19 19:30N 46°02' W 122°52'0 0.0
2018-Jun-19 18:59N 46°02' W 122°52'1 1.4
2018-Jun-19 18:30N 46°02' W 122°53'5 6.5
2018-Jun-19 17:45N 46°06' W 122°57'0 0.0
2018-Jun-19 17:30N 46°06' W 122°57'2 4.9
2018-Jun-19 17:00N 46°08' W 122°60'5 6.2
2018-Jun-19 16:07N 46°11' W 123°06'1 6.6
2018-Jun-19 16:00N 46°11' W 123°07'5 6.5
2018-Jun-19 15:16N 46°10' W 123°14'2 6.9
2018-Jun-19 15:00N 46°09' W 123°16'5 7.1
2018-Jun-19 14:22N 46°09' W 123°23'3 7.3
2018-Jun-19 14:01N 46°11' W 123°25'4 7.3
2018-Jun-19 13:30N 46°14' W 123°26'4 7.1
2018-Jun-19 13:00N 46°16' W 123°30'4 7.9
2018-Jun-19 12:31N 46°15' W 123°36'4 8.2
2018-Jun-19 12:01N 46°15' W 123°42'4 7.4
2018-Jun-19 11:28N 46°13' W 123°46'2 3.5
2018-Jun-19 11:00N 46°12' W 123°48'5 8.8
2018-Jun-19 10:30N 46°11' W 123°55'0 0.6
2018-Jun-19 10:01N 46°11' W 123°55'0 0.0
2018-Jun-19 09:30N 46°11' W 123°55'0 0.0
2018-Jun-19 09:01N 46°11' W 123°55'0 0.0
2018-Jun-19 08:30N 46°11' W 123°55'4 8.8
2018-Jun-19 08:00N 46°12' W 123°49'510.8
2018-Jun-19 07:30N 46°15' W 123°42'611.1
2018-Jun-19 07:00N 46°15' W 123°34'510.3
2018-Jun-19 06:31N 46°15' W 123°27'510.8
2018-Jun-19 06:01N 46°10' W 123°25'510.4
2018-Jun-19 05:31N 46°09' W 123°18'510.5
2018-Jun-19 05:01N 46°11' W 123°11'5 9.1
2018-Jun-19 04:30N 46°10' W 123°04'4 8.7
2018-Jun-19 04:01N 46°07' W 122°59'4 7.9
2018-Jun-19 03:30N 46°05' W 122°55'4 8.4
2018-Jun-19 03:01N 46°01' W 122°52'2 3.1
2018-Jun-19 02:31N 45°60' W 122°51'0 0.2
2018-Jun-19 02:01N 45°60' W 122°51'1 2.6
2018-Jun-19 01:31N 46°01' W 122°52'0 0.8
2018-Jun-19 01:00N 46°01' W 122°52'2 4.9
2018-Jun-19 00:30N 46°04' W 122°53'3 5.0
2018-Jun-19 00:01N 46°05' W 122°56'0 0.0
2018-Jun-18 23:30N 46°05' W 122°56'0 0.0
2018-Jun-18 23:00N 46°05' W 122°56'0 0.0
2018-Jun-18 22:30N 46°05' W 122°56'0 0.0
2018-Jun-18 22:01N 46°05' W 122°56'0 0.0
2018-Jun-18 21:31N 46°05' W 122°56'0 0.0
2018-Jun-18 21:00N 46°05' W 122°56'0 0.0
2018-Jun-18 20:30N 46°05' W 122°56'0 0.0
2018-Jun-18 20:00N 46°05' W 122°56'0 0.0
2018-Jun-18 19:30N 46°05' W 122°56'0 0.0
2018-Jun-18 19:00N 46°05' W 122°56'0 0.0
2018-Jun-18 18:30N 46°05' W 122°56'0 0.0
2018-Jun-18 17:59N 46°05' W 122°56'0 0.0
2018-Jun-18 17:21N 46°05' W 122°56'0 0.1
2018-Jun-18 17:01N 46°05' W 122°56'2 4.3
2018-Jun-18 16:31N 46°07' W 122°58'0 0.1
2018-Jun-18 16:00N 46°07' W 122°58'1 1.3
2018-Jun-18 15:31N 46°06' W 122°58'2 3.3
2018-Jun-18 15:00N 46°05' W 122°56'0 0.0
2018-Jun-18 14:31N 46°05' W 122°56'0 0.0
2018-Jun-18 14:00N 46°05' W 122°56'0 0.0
2018-Jun-18 13:31N 46°05' W 122°56'0 0.0
2018-Jun-18 13:00N 46°05' W 122°56'0 0.0
2018-Jun-18 12:30N 46°05' W 122°56'0 0.0
2018-Jun-18 12:01N 46°05' W 122°56'0 0.0
2018-Jun-18 11:30N 46°05' W 122°56'0 0.0
2018-Jun-18 11:01N 46°05' W 122°56'0 0.0
2018-Jun-18 10:31N 46°05' W 122°56'0 0.0
2018-Jun-18 10:01N 46°05' W 122°56'0 0.0
2018-Jun-18 09:30N 46°05' W 122°56'0 0.0
2018-Jun-18 09:01N 46°05' W 122°56'0 0.0
2018-Jun-18 08:30N 46°05' W 122°56'0 0.0
2018-Jun-18 08:01N 46°05' W 122°56'0 0.0
2018-Jun-18 07:30N 46°05' W 122°56'0 0.0
2018-Jun-18 06:59N 46°05' W 122°56'0 0.0
2018-Jun-18 06:30N 46°05' W 122°56'0 0.0
2018-Jun-18 06:00N 46°05' W 122°56'0 0.0
2018-Jun-18 05:30N 46°05' W 122°56'0 0.0
2018-Jun-18 05:01N 46°05' W 122°56'0 0.0
2018-Jun-18 04:30N 46°05' W 122°56'1 2.2
2018-Jun-18 04:01N 46°06' W 122°57'1 2.2
2018-Jun-18 03:30N 46°07' W 122°58'0 0.0
2018-Jun-18 03:00N 46°07' W 122°58'0 0.4
2018-Jun-18 02:06N 46°07' W 122°58'0 0.0
2018-Jun-18 02:01N 46°07' W 122°58'0 0.0
2018-Jun-18 01:30N 46°07' W 122°58'2 3.1
2018-Jun-18 01:01N 46°06' W 122°57'5 9.9
2018-Jun-18 00:31N 46°02' W 122°53'3 6.3
2018-Jun-18 00:00N 45°59' W 122°50'0 0.2
2018-Jun-17 23:31N 45°59' W 122°50'0 0.1
2018-Jun-17 22:47N 45°59' W 122°50'0 0.0
2018-Jun-17 22:31N 45°59' W 122°50'0 0.0
2018-Jun-17 22:00N 45°59' W 122°50'1 1.5
2018-Jun-17 21:18N 45°58' W 122°50'411.4
2018-Jun-17 20:57N 45°54' W 122°48'610.5
2018-Jun-17 20:23N 45°48' W 122°47'410.8
2018-Jun-17 20:00N 45°44' W 122°46'510.7
2018-Jun-17 19:31N 45°39' W 122°46'4 7.7
2018-Jun-17 19:00N 45°35' W 122°46'0 0.0
2018-Jun-17 18:31N 45°35' W 122°46'0 0.0
2018-Jun-17 18:00N 45°35' W 122°46'0 0.0
2018-Jun-17 17:30N 45°35' W 122°46'0 0.0
2018-Jun-17 17:00N 45°35' W 122°46'3 5.6
2018-Jun-17 16:31N 45°38' W 122°47'2 2.7
2018-Jun-17 15:56N 45°39' W 122°46'1 1.5
2018-Jun-17 15:31N 45°39' W 122°46'0 0.0
2018-Jun-17 15:00N 45°39' W 122°46'0 0.0
2018-Jun-17 14:30N 45°39' W 122°46'1 2.0
2018-Jun-17 14:00N 45°39' W 122°45'0 0.0
2018-Jun-17 13:31N 45°39' W 122°45'0 0.0
2018-Jun-17 13:00N 45°39' W 122°45'0 0.0
2018-Jun-17 12:30N 45°39' W 122°45'0 0.0
2018-Jun-17 12:01N 45°39' W 122°45'0 0.0
2018-Jun-17 11:30N 45°39' W 122°45'0 0.0
2018-Jun-17 11:00N 45°39' W 122°45'0 0.0
2018-Jun-17 10:30N 45°39' W 122°45'2 2.9
2018-Jun-17 09:44N 45°38' W 122°47'0 0.0
2018-Jun-17 09:30N 45°38' W 122°47'0 0.0
2018-Jun-17 09:00N 45°38' W 122°47'0 1.0
2018-Jun-17 08:30N 45°38' W 122°47'2 3.5
2018-Jun-17 08:00N 45°39' W 122°45'0 0.5
2018-Jun-17 07:30N 45°39' W 122°45'0 0.9
2018-Jun-17 07:00N 45°39' W 122°46'1 2.3
2018-Jun-17 06:30N 45°40' W 122°46'3 5.8
2018-Jun-17 06:00N 45°43' W 122°46'3 6.3
2018-Jun-17 05:31N 45°46' W 122°46'3 6.2
2018-Jun-17 05:00N 45°49' W 122°48'3 6.1
2018-Jun-17 04:31N 45°52' W 122°47'3 6.3
2018-Jun-17 04:00N 45°55' W 122°48'3 6.3
2018-Jun-17 03:30N 45°58' W 122°50'3 6.8
2018-Jun-17 03:01N 46°01' W 122°52'3 6.9
2018-Jun-17 02:30N 46°05' W 122°54'4 7.1
2018-Jun-17 02:00N 46°06' W 122°58'4 7.1
2018-Jun-17 01:29N 46°09' W 123°02'4 7.3
2018-Jun-17 01:01N 46°11' W 123°06'4 7.0
2018-Jun-17 00:30N 46°11' W 123°12'4 7.5
2018-Jun-17 00:01N 46°09' W 123°16'4 7.5
2018-Jun-16 23:30N 46°09' W 123°22'4 7.4
2018-Jun-16 23:00N 46°11' W 123°26'4 7.4
2018-Jun-16 22:31N 46°15' W 123°26'3 6.9
2018-Jun-16 22:00N 46°16' W 123°31'4 8.1
2018-Jun-16 21:30N 46°15' W 123°37'4 8.0
2018-Jun-16 21:00N 46°14' W 123°42'4 8.6
2018-Jun-16 20:30N 46°12' W 123°48'4 8.7
2018-Jun-16 20:01N 46°11' W 123°54'1 2.5
2018-Jun-16 19:28N 46°12' W 123°56'1 1.2
2018-Jun-16 19:00N 46°11' W 123°55'0 0.0
2018-Jun-16 18:31N 46°11' W 123°55'0 0.0
2018-Jun-16 18:01N 46°11' W 123°55'0 0.0
2018-Jun-16 17:31N 46°11' W 123°55'5 9.6
2018-Jun-16 17:00N 46°12' W 123°48'611.9
2018-Jun-16 16:31N 46°15' W 123°41'611.8
2018-Jun-16 16:00N 46°16' W 123°32'5 9.8
2018-Jun-16 15:30N 46°14' W 123°26'510.6
2018-Jun-16 15:00N 46°09' W 123°23'611.0
2018-Jun-16 14:30N 46°09' W 123°15'510.7
2018-Jun-16 14:01N 46°11' W 123°08'510.4
2018-Jun-16 13:30N 46°08' W 123°02'5 9.6
2018-Jun-16 13:00N 46°06' W 122°56'0 0.4
2018-Jun-16 12:30N 46°05' W 122°56'0 0.0
2018-Jun-16 12:00N 46°05' W 122°56'0 0.0
2018-Jun-16 11:30N 46°05' W 122°56'0 0.0
2018-Jun-16 11:01N 46°05' W 122°56'0 0.0
2018-Jun-16 10:31N 46°05' W 122°56'0 0.0
2018-Jun-16 10:01N 46°05' W 122°56'0 0.0
2018-Jun-16 09:31N 46°05' W 122°56'0 0.0
2018-Jun-16 09:01N 46°05' W 122°56'0 0.0
2018-Jun-16 08:30N 46°05' W 122°56'0 0.0
2018-Jun-16 08:00N 46°05' W 122°56'0 0.0
2018-Jun-16 07:31N 46°05' W 122°56'0 0.0
2018-Jun-16 06:59N 46°05' W 122°56'0 0.0
2018-Jun-16 06:30N 46°05' W 122°56'0 0.0
2018-Jun-16 06:00N 46°05' W 122°56'0 0.0
2018-Jun-16 05:30N 46°05' W 122°56'0 0.0
2018-Jun-16 05:00N 46°05' W 122°56'2 3.4
2018-Jun-16 04:28N 46°04' W 122°54'611.1
2018-Jun-16 03:54N 45°58' W 122°50'410.6
2018-Jun-16 03:30N 45°54' W 122°48'510.5
2018-Jun-16 03:01N 45°49' W 122°48'510.4
2018-Jun-16 02:30N 45°44' W 122°46'6 9.8
2018-Jun-16 01:53N 45°38' W 122°47'3 8.0
2018-Jun-16 01:31N 45°35' W 122°46'0 0.1
2018-Jun-16 01:00N 45°35' W 122°46'0 0.0
2018-Jun-16 00:30N 45°35' W 122°46'0 0.0
2018-Jun-16 00:00N 45°35' W 122°46'0 0.0
2018-Jun-15 23:31N 45°35' W 122°46'3 6.5
2018-Jun-15 23:01N 45°38' W 122°47'4 8.1
2018-Jun-15 22:31N 45°42' W 122°46'4 7.9
2018-Jun-15 22:00N 45°46' W 122°46'4 7.6
2018-Jun-15 21:31N 45°50' W 122°47'4 7.3
2018-Jun-15 21:00N 45°54' W 122°48'4 7.4
2018-Jun-15 20:30N 45°57' W 122°49'2 3.4
2018-Jun-15 20:00N 45°59' W 122°50'0 0.1
2018-Jun-15 19:31N 45°59' W 122°50'0 0.1
2018-Jun-15 19:00N 45°59' W 122°50'0 0.4
2018-Jun-15 18:29N 45°59' W 122°50'0 0.0
2018-Jun-15 18:00N 45°59' W 122°50'0 0.0
2018-Jun-15 17:31N 45°59' W 122°50'0 0.0
2018-Jun-15 17:01N 45°59' W 122°50'0 0.0
2018-Jun-15 16:30N 45°59' W 122°50'0 0.0
2018-Jun-15 15:51N 45°59' W 122°50'0 0.0
2018-Jun-15 15:30N 45°59' W 122°50'0 0.0
2018-Jun-15 15:01N 45°59' W 122°50'0 0.0
2018-Jun-15 14:31N 45°59' W 122°50'0 0.5
2018-Jun-15 14:00N 45°59' W 122°50'0 0.5
2018-Jun-15 13:31N 45°59' W 122°50'0 0.1
2018-Jun-15 13:00N 45°59' W 122°50'0 0.0
2018-Jun-15 12:31N 45°59' W 122°50'2 3.4
2018-Jun-15 11:49N 45°57' W 122°49'3 9.5
2018-Jun-15 11:31N 45°54' W 122°48'5 9.6
2018-Jun-15 11:01N 45°49' W 122°48'510.1
2018-Jun-15 10:31N 45°44' W 122°46'6 6.7
2018-Jun-15 09:37N 45°38' W 122°44'0 0.0
2018-Jun-15 09:30N 45°38' W 122°44'0 0.0
2018-Jun-15 09:00N 45°38' W 122°44'0 0.0
2018-Jun-15 08:30N 45°38' W 122°44'1 2.7
2018-Jun-15 08:00N 45°39' W 122°46'1 0.8
2018-Jun-15 07:19N 45°39' W 122°46'0 0.5
2018-Jun-15 06:59N 45°39' W 122°46'0 1.0
2018-Jun-15 06:30N 45°39' W 122°46'0 0.0
2018-Jun-15 06:00N 45°39' W 122°46'0 0.0
2018-Jun-15 05:29N 45°39' W 122°46'1 2.2
2018-Jun-15 05:00N 45°39' W 122°45'0 0.0
2018-Jun-15 04:30N 45°39' W 122°45'0 0.0
2018-Jun-15 04:01N 45°39' W 122°45'0 0.0
2018-Jun-15 03:08N 45°39' W 122°45'1 6.5
2018-Jun-15 03:00N 45°40' W 122°46'4 8.2
2018-Jun-15 02:30N 45°44' W 122°46'4 8.4
2018-Jun-15 02:01N 45°48' W 122°47'5 8.2
2018-Jun-15 01:21N 45°54' W 122°48'3 8.7
2018-Jun-15 01:00N 45°56' W 122°49'4 8.8
2018-Jun-15 00:30N 46°00' W 122°51'1 2.9
2018-Jun-15 00:01N 46°02' W 122°53'0 0.4
2018-Jun-14 23:30N 46°02' W 122°52'0 0.0
2018-Jun-14 23:00N 46°02' W 122°52'0 0.4
2018-Jun-14 22:31N 46°02' W 122°53'0 0.4
2018-Jun-14 22:00N 46°02' W 122°52'0 0.2
2018-Jun-14 21:30N 46°02' W 122°52'0 0.0
2018-Jun-14 21:00N 46°02' W 122°52'0 0.0
2018-Jun-14 20:31N 46°02' W 122°52'0 0.0
2018-Jun-14 20:00N 46°02' W 122°52'0 0.0
2018-Jun-14 19:30N 46°02' W 122°52'0 0.6
2018-Jun-14 19:01N 46°02' W 122°53'0 0.1
2018-Jun-14 18:30N 46°02' W 122°53'0 0.0
2018-Jun-14 18:01N 46°02' W 122°53'0 0.0
2018-Jun-14 17:30N 46°02' W 122°53'0 0.0
2018-Jun-14 17:00N 46°02' W 122°53'0 0.0
2018-Jun-14 16:31N 46°02' W 122°53'0 0.0
2018-Jun-14 16:00N 46°02' W 122°53'0 0.0
2018-Jun-14 15:30N 46°02' W 122°53'0 0.0
2018-Jun-14 15:00N 46°02' W 122°53'0 0.0
2018-Jun-14 14:23N 46°02' W 122°53'0 0.0
2018-Jun-14 14:00N 46°02' W 122°53'0 0.0
2018-Jun-14 13:31N 46°02' W 122°53'0 0.0
2018-Jun-14 13:00N 46°02' W 122°53'0 0.1
2018-Jun-14 12:30N 46°02' W 122°53'0 0.1
2018-Jun-14 12:00N 46°02' W 122°53'0 0.0
2018-Jun-14 11:29N 46°02' W 122°53'0 0.0
2018-Jun-14 11:00N 46°02' W 122°53'0 0.1
2018-Jun-14 10:30N 46°02' W 122°53'0 0.0
2018-Jun-14 10:00N 46°02' W 122°53'0 0.1
2018-Jun-14 09:31N 46°02' W 122°53'0 0.0
2018-Jun-14 09:01N 46°02' W 122°53'0 0.0
2018-Jun-14 08:31N 46°02' W 122°53'0 0.0
2018-Jun-14 08:01N 46°02' W 122°53'0 0.0
2018-Jun-14 07:30N 46°02' W 122°53'1 2.1
2018-Jun-14 06:59N 46°03' W 122°53'2 4.4
2018-Jun-14 06:31N 46°05' W 122°54'2 4.0
2018-Jun-14 06:00N 46°06' W 122°56'0 0.0
2018-Jun-14 05:23N 46°06' W 122°56'1 1.5
2018-Jun-14 05:00N 46°05' W 122°56'0 0.2
2018-Jun-14 04:30N 46°05' W 122°56'0 0.0
2018-Jun-14 04:00N 46°05' W 122°56'0 0.0
2018-Jun-14 03:19N 46°05' W 122°56'0 0.0
2018-Jun-14 03:00N 46°05' W 122°56'0 0.0
2018-Jun-14 02:31N 46°05' W 122°56'0 0.0
2018-Jun-14 02:01N 46°05' W 122°56'4 7.9
2018-Jun-14 01:31N 46°02' W 122°53'611.4
2018-Jun-14 01:01N 45°57' W 122°49'611.2
2018-Jun-14 00:30N 45°52' W 122°47'510.8
2018-Jun-14 00:00N 45°46' W 122°46'511.0
2018-Jun-13 23:31N 45°41' W 122°46'2 4.9
2018-Jun-13 23:00N 45°38' W 122°47'0 0.2
2018-Jun-13 22:29N 45°38' W 122°47'1 2.5
2018-Jun-13 21:59N 45°39' W 122°46'1 1.3
2018-Jun-13 21:30N 45°39' W 122°46'3 6.3
2018-Jun-13 21:01N 45°36' W 122°47'1 0.9
2018-Jun-13 20:27N 45°35' W 122°46'0 0.0
2018-Jun-13 19:51N 45°35' W 122°46'0 0.0
2018-Jun-13 19:31N 45°35' W 122°46'0 0.0
2018-Jun-13 19:00N 45°35' W 122°46'3 6.6
2018-Jun-13 18:31N 45°39' W 122°47'4 8.4
2018-Jun-13 18:00N 45°43' W 122°46'4 8.2
2018-Jun-13 17:30N 45°47' W 122°46'5 7.9
2018-Jun-13 16:51N 45°52' W 122°47'3 8.0
2018-Jun-13 16:31N 45°55' W 122°49'4 7.6
2018-Jun-13 16:01N 45°58' W 122°50'4 7.9
2018-Jun-13 15:31N 46°02' W 122°52'4 7.2
2018-Jun-13 15:01N 46°05' W 122°55'1 1.7
2018-Jun-13 14:29N 46°05' W 122°56'0 0.0
2018-Jun-13 13:56N 46°05' W 122°56'0 0.0
2018-Jun-13 13:29N 46°05' W 122°56'0 0.0
2018-Jun-13 12:59N 46°05' W 122°56'0 0.0
2018-Jun-13 12:29N 46°05' W 122°56'0 0.0
2018-Jun-13 11:53N 46°05' W 122°56'0 0.0
2018-Jun-13 11:29N 46°05' W 122°56'0 0.0
2018-Jun-13 10:53N 46°05' W 122°56'0 0.0
2018-Jun-13 10:29N 46°05' W 122°56'0 0.0
2018-Jun-13 09:50N 46°05' W 122°56'0 0.0
2018-Jun-13 09:29N 46°05' W 122°56'0 0.0
2018-Jun-13 08:50N 46°05' W 122°56'0 0.0
2018-Jun-13 08:29N 46°05' W 122°56'0 0.0
2018-Jun-13 07:59N 46°05' W 122°56'0 0.0
2018-Jun-13 07:29N 46°05' W 122°56'0 0.0
2018-Jun-13 06:59N 46°05' W 122°56'0 0.0
2018-Jun-13 06:14N 46°05' W 122°56'0 0.0
2018-Jun-13 05:53N 46°05' W 122°56'0 0.0
2018-Jun-13 05:20N 46°05' W 122°56'0 0.0
2018-Jun-13 04:59N 46°05' W 122°56'0 0.0
2018-Jun-13 04:29N 46°05' W 122°56'0 0.0
2018-Jun-13 03:47N 46°05' W 122°56'0 0.0
2018-Jun-13 03:23N 46°05' W 122°56'0 0.0
2018-Jun-13 02:56N 46°05' W 122°56'0 0.0
2018-Jun-13 02:11N 46°05' W 122°56'0 0.0
2018-Jun-13 01:59N 46°05' W 122°56'0 0.0
2018-Jun-13 01:26N 46°05' W 122°56'0 0.0
2018-Jun-13 00:59N 46°05' W 122°56'0 0.0
2018-Jun-13 00:29N 46°05' W 122°56'0 0.0
2018-Jun-12 23:59N 46°05' W 122°56'0 0.0
2018-Jun-12 23:28N 46°05' W 122°56'1 2.3
2018-Jun-12 22:59N 46°06' W 122°57'0 0.2
2018-Jun-12 22:30N 46°06' W 122°57'0 0.3
2018-Jun-12 22:00N 46°06' W 122°57'0 0.4
2018-Jun-12 21:26N 46°06' W 122°57'0 0.0
2018-Jun-12 21:00N 46°06' W 122°57'0 0.0
2018-Jun-12 20:31N 46°06' W 122°57'0 0.5
2018-Jun-12 20:00N 46°06' W 122°57'3 6.6
2018-Jun-12 19:30N 46°04' W 122°53'5 9.2
2018-Jun-12 19:00N 45°60' W 122°51'4 7.1
2018-Jun-12 18:30N 46°03' W 122°53'3 5.7
2018-Jun-12 18:00N 46°05' W 122°55'0 0.3
2018-Jun-12 17:01N 46°05' W 122°56'0 0.1
2018-Jun-12 16:43N 46°05' W 122°56'0 0.0
2018-Jun-12 16:28N 46°05' W 122°56'0 0.0
2018-Jun-12 15:55N 46°05' W 122°56'0 0.0
2018-Jun-12 15:28N 46°05' W 122°56'1 1.1
2018-Jun-12 15:00N 46°05' W 122°55'611.8
2018-Jun-12 14:30N 46°00' W 122°51'611.6
2018-Jun-12 14:01N 45°55' W 122°48'611.6
2018-Jun-12 13:30N 45°49' W 122°48'2 4.8
2018-Jun-12 13:00N 45°51' W 122°47'4 7.4
2018-Jun-12 12:30N 45°55' W 122°49'4 7.4
2018-Jun-12 12:00N 45°58' W 122°50'4 5.1
2018-Jun-12 11:17N 46°02' W 122°52'0 0.0
2018-Jun-12 11:00N 46°02' W 122°52'0 0.6
2018-Jun-12 10:31N 46°01' W 122°52'0 0.6
2018-Jun-12 10:00N 46°02' W 122°52'  

Dump ship's entire track history